createdAt,value
2024-05-09T00:02:34.866Z,2.72
2024-05-09T00:07:41.729Z,2.64
2024-05-09T00:12:48.423Z,2.56
2024-05-09T00:17:55.171Z,2.45
2024-05-09T00:23:02.076Z,2.36
2024-05-09T00:28:09.238Z,2.27
2024-05-09T00:33:16.114Z,2.19
2024-05-09T00:38:22.997Z,2.12
2024-05-09T00:43:29.627Z,2.05
2024-05-09T00:48:37.214Z,1.97
2024-05-09T00:53:44.329Z,1.91
2024-05-09T00:58:52.169Z,1.85
2024-05-09T01:03:59.831Z,1.80
2024-05-09T01:09:07.076Z,1.75
2024-05-09T01:14:13.827Z,1.70
2024-05-09T01:19:24.608Z,1.62
2024-05-09T01:24:31.413Z,1.54
2024-05-09T01:29:39.841Z,1.50
2024-05-09T01:34:46.603Z,1.46
2024-05-09T01:39:53.616Z,1.43
2024-05-09T01:45:00.454Z,1.43
2024-05-09T01:50:10.773Z,1.40
2024-05-09T01:55:18.096Z,1.40
2024-05-09T02:00:36.861Z,1.39
2024-05-09T02:05:49.602Z,1.41
2024-05-09T02:10:57.756Z,1.44
2024-05-09T02:16:05.043Z,1.53
2024-05-09T02:21:12.628Z,1.66
2024-05-09T02:26:19.501Z,1.75
2024-05-09T02:31:26.627Z,1.81
2024-05-09T02:36:33.363Z,1.87
2024-05-09T02:41:40.176Z,1.92
2024-05-09T02:46:47.026Z,1.95
2024-05-09T02:51:53.725Z,1.91
2024-05-09T02:57:00.294Z,1.84
2024-05-09T03:02:07.496Z,1.79
2024-05-09T03:07:14.818Z,1.78
2024-05-09T03:12:21.513Z,1.83
2024-05-09T03:17:28.611Z,1.90
2024-05-09T03:22:35.726Z,2.03
2024-05-09T03:27:42.680Z,2.16
2024-05-09T03:32:49.637Z,2.29
2024-05-09T03:37:56.421Z,2.42
2024-05-09T03:43:03.258Z,2.53
2024-05-09T03:48:11.282Z,2.63
2024-05-09T03:53:18.420Z,2.74
2024-05-09T03:58:27.562Z,2.89
2024-05-09T04:03:35.045Z,3.21
2024-05-09T04:08:42.117Z,3.76
2024-05-09T04:13:49.344Z,4.44
2024-05-09T04:18:56.237Z,5.12
2024-05-09T04:24:02.953Z,5.86
2024-05-09T04:29:10.195Z,6.61
2024-05-09T04:34:17.109Z,7.35
2024-05-09T04:39:24.124Z,8.21
2024-05-09T04:44:30.755Z,9.13
2024-05-09T04:49:37.827Z,10.05
2024-05-09T04:54:45.406Z,10.79
2024-05-09T04:59:52.529Z,11.59
2024-05-09T05:04:59.414Z,12.35
2024-05-09T05:10:09.359Z,13.04
2024-05-09T05:15:19.908Z,13.76
2024-05-09T05:20:32.884Z,14.18
2024-05-09T05:25:44.621Z,14.24
2024-05-09T05:30:54.125Z,14.14
2024-05-09T05:36:01.739Z,14.13
2024-05-09T05:41:09.796Z,14.09
2024-05-09T05:46:17.783Z,14.19
2024-05-09T05:51:27.986Z,14.37
2024-05-09T05:56:35.269Z,14.57
2024-05-09T06:01:42.750Z,14.71
2024-05-09T06:06:51.420Z,14.77
2024-05-09T06:12:14.507Z,15.03
2024-05-09T06:17:21.894Z,15.07
2024-05-09T06:22:28.760Z,15.31
2024-05-09T06:27:35.895Z,15.83
2024-05-09T06:32:45.502Z,16.03
2024-05-09T06:37:52.337Z,16.22
2024-05-09T06:42:59.393Z,16.36
2024-05-09T06:48:07.460Z,16.77
2024-05-09T06:53:16.572Z,17.30
2024-05-09T06:58:23.429Z,17.90
2024-05-09T07:03:31.416Z,18.74
2024-05-09T07:08:38.306Z,19.81
2024-05-09T07:13:45.374Z,20.81
2024-05-09T07:18:55.055Z,21.55
2024-05-09T07:24:01.992Z,22.10
2024-05-09T07:29:07.732Z,22.55
2024-05-09T07:34:16.594Z,22.59
2024-05-09T07:39:24.700Z,22.57
2024-05-09T07:44:31.519Z,22.13
2024-05-09T07:54:47.891Z,21.89
2024-05-09T07:59:57.170Z,22.18
2024-05-09T08:05:05.921Z,22.50
2024-05-09T08:10:15.313Z,22.37
2024-05-09T08:15:25.344Z,21.51
2024-05-09T08:20:35.202Z,20.46
2024-05-09T08:25:43.059Z,19.77
2024-05-09T08:30:48.639Z,19.01
2024-05-09T08:35:55.585Z,18.11
2024-05-09T08:41:04.111Z,17.42
2024-05-09T08:46:14.577Z,16.91
2024-05-09T08:51:21.576Z,16.66
2024-05-09T08:56:35.250Z,16.63
2024-05-09T09:01:53.852Z,16.75
2024-05-09T09:12:12.449Z,17.02
2024-05-09T09:17:20.059Z,16.96
2024-05-09T09:22:26.852Z,16.87
2024-05-09T09:27:35.965Z,16.69
2024-05-09T09:32:42.866Z,16.59
2024-05-09T09:37:51.810Z,16.61
2024-05-09T09:43:01.737Z,16.80
2024-05-09T09:48:15.875Z,17.10
2024-05-09T09:53:26.898Z,17.32
2024-05-09T09:58:35.924Z,17.41
2024-05-09T10:03:43.043Z,17.29
2024-05-09T10:08:51.578Z,17.11
2024-05-09T10:13:59.726Z,17.07
2024-05-09T10:19:06.660Z,17.11
2024-05-09T10:24:13.648Z,17.02
2024-05-09T10:29:23.512Z,17.06
2024-05-09T10:34:36.797Z,17.01
2024-05-09T10:39:43.723Z,16.99
2024-05-09T10:44:50.423Z,17.09
2024-05-09T10:49:58.320Z,17.26
2024-05-09T10:55:06.186Z,17.56
2024-05-09T11:00:23.309Z,17.76
2024-05-09T11:05:39.068Z,17.96
2024-05-09T11:10:47.256Z,17.98
2024-05-09T11:15:55.009Z,18.04
2024-05-09T11:21:02.069Z,18.10
2024-05-09T11:26:10.822Z,18.00
2024-05-09T11:31:18.410Z,17.97
2024-05-09T11:36:25.265Z,18.00
2024-05-09T11:41:35.705Z,18.11
2024-05-09T11:46:47.323Z,18.28
2024-05-09T11:51:54.338Z,18.42
2024-05-09T11:57:01.262Z,18.49
2024-05-09T12:02:08.564Z,18.58
2024-05-09T12:07:16.050Z,18.58
2024-05-09T12:12:22.965Z,18.66
2024-05-09T12:17:29.898Z,18.82
2024-05-09T12:22:37.078Z,18.92
2024-05-09T12:27:44.614Z,18.87
2024-05-09T12:32:54.141Z,18.80
2024-05-09T12:38:00.963Z,18.87
2024-05-09T12:43:09.830Z,18.90
2024-05-09T12:48:17.863Z,18.83
2024-05-09T12:53:25.528Z,18.61
2024-05-09T12:58:32.307Z,18.41
2024-05-09T13:03:39.411Z,18.24
2024-05-09T13:08:47.939Z,18.19
2024-05-09T13:13:54.844Z,18.25
2024-05-09T13:19:01.977Z,18.21
2024-05-09T13:24:20.589Z,18.16
2024-05-09T13:29:30.958Z,18.18
2024-05-09T13:34:39.381Z,18.16
2024-05-09T13:39:48.787Z,18.19
2024-05-09T13:44:56.167Z,18.34
2024-05-09T13:50:05.176Z,18.49
2024-05-09T13:55:12.544Z,18.61
2024-05-09T14:00:48.065Z,18.77
2024-05-09T14:06:00.334Z,18.83
2024-05-09T14:11:07.683Z,18.90
2024-05-09T14:16:18.980Z,18.93
2024-05-09T14:21:29.441Z,18.89
2024-05-09T14:26:36.689Z,18.91
2024-05-09T14:31:43.347Z,18.95
2024-05-09T14:36:50.218Z,19.02
2024-05-09T14:41:57.231Z,19.11
2024-05-09T14:47:04.162Z,19.14
2024-05-09T14:52:13.448Z,19.10
2024-05-09T14:57:20.732Z,19.15
2024-05-09T15:02:27.495Z,19.25
2024-05-09T15:07:34.518Z,19.24
2024-05-09T15:12:41.284Z,19.28
2024-05-09T15:17:48.414Z,19.33
2024-05-09T15:22:57.053Z,19.36
2024-05-09T15:28:04.748Z,19.35
2024-05-09T15:33:12.953Z,19.29
2024-05-09T15:38:21.298Z,19.20
2024-05-09T15:43:28.647Z,19.14
2024-05-09T15:48:37.794Z,19.13
2024-05-09T15:53:45.383Z,19.15
2024-05-09T15:58:52.195Z,19.17
2024-05-09T16:03:59.235Z,19.10
2024-05-09T16:09:07.026Z,19.06
2024-05-09T16:14:13.689Z,19.02
2024-05-09T16:19:20.333Z,18.97
2024-05-09T16:24:29.749Z,18.93
2024-05-09T16:29:36.554Z,18.89
2024-05-09T16:34:43.185Z,18.87
2024-05-09T16:39:50.088Z,18.83
2024-05-09T16:44:56.980Z,18.74
2024-05-09T16:50:05.106Z,18.67
2024-05-09T16:55:12.287Z,18.59
2024-05-09T17:00:30.882Z,18.48
2024-05-09T17:05:47.468Z,18.36
2024-05-09T17:10:55.930Z,18.27
2024-05-09T17:16:04.217Z,18.19
2024-05-09T17:21:11.491Z,18.08
2024-05-09T17:26:18.559Z,17.97
2024-05-09T17:31:26.401Z,17.89
2024-05-09T17:36:33.504Z,17.82
2024-05-09T17:41:40.578Z,17.73
2024-05-09T17:46:46.385Z,17.59
2024-05-09T17:51:56.849Z,17.44
2024-05-09T17:57:05.597Z,17.25
2024-05-09T18:02:12.849Z,17.02
2024-05-09T18:07:19.915Z,16.78
2024-05-09T18:12:27.676Z,16.52
2024-05-09T18:17:35.418Z,16.21
2024-05-09T18:22:42.157Z,15.91
2024-05-09T18:27:49.204Z,15.60
2024-05-09T18:32:56.035Z,15.29
2024-05-09T18:38:03.012Z,14.97
2024-05-09T18:43:11.420Z,14.66
2024-05-09T18:48:18.841Z,14.33
2024-05-09T18:53:25.956Z,14.00
2024-05-09T18:58:34.805Z,13.69
2024-05-09T19:03:42.282Z,13.40
2024-05-09T19:08:49.423Z,13.10
2024-05-09T19:13:58.587Z,12.82
2024-05-09T19:19:06.357Z,12.55
2024-05-09T19:24:13.508Z,12.23
2024-05-09T19:29:23.048Z,11.94
2024-05-09T19:34:30.036Z,11.68
2024-05-09T19:39:36.937Z,11.47
2024-05-09T19:44:44.484Z,11.32
2024-05-09T19:49:51.305Z,11.17
2024-05-09T19:54:58.281Z,11.02
2024-05-09T20:00:06.061Z,10.87
2024-05-09T20:05:16.365Z,10.70
2024-05-09T20:10:31.461Z,10.56
2024-05-09T20:15:41.240Z,10.42
2024-05-09T20:20:52.448Z,10.29
2024-05-09T20:26:21.604Z,10.20
2024-05-09T20:31:34.399Z,10.09
2024-05-09T20:36:49.012Z,9.95
2024-05-09T20:41:56.228Z,9.80
2024-05-09T20:47:03.196Z,9.68
2024-05-09T20:52:10.863Z,9.54
2024-05-09T20:57:20.036Z,9.41
2024-05-09T21:02:26.955Z,9.29
2024-05-09T21:07:39.120Z,9.20
2024-05-09T21:12:54.224Z,9.10
2024-05-09T21:18:01.407Z,8.99
2024-05-09T21:23:11.401Z,8.97
2024-05-09T21:28:18.861Z,9.15
2024-05-09T21:33:26.014Z,9.36
2024-05-09T21:38:32.930Z,9.48
2024-05-09T21:43:40.362Z,9.51
2024-05-09T21:48:47.162Z,9.53
2024-05-09T21:53:53.756Z,9.52
2024-05-09T21:59:00.367Z,9.51
2024-05-09T22:04:07.234Z,9.47
2024-05-09T22:09:14.309Z,9.43
2024-05-09T22:14:21.618Z,9.39
2024-05-09T22:19:29.716Z,9.33
2024-05-09T22:24:36.727Z,9.24
2024-05-09T22:29:43.414Z,9.10
2024-05-09T22:34:50.165Z,8.96
2024-05-09T22:39:56.925Z,8.79
2024-05-09T22:45:03.474Z,8.57
2024-05-09T22:50:16.010Z,8.39
2024-05-09T22:55:28.931Z,8.28
2024-05-09T23:00:35.975Z,8.20
2024-05-09T23:05:42.852Z,8.14
2024-05-09T23:10:49.734Z,8.06
2024-05-09T23:15:56.492Z,8.01
2024-05-09T23:21:03.783Z,7.99
2024-05-09T23:26:10.338Z,7.96
2024-05-09T23:31:16.947Z,7.95
2024-05-09T23:36:23.650Z,7.91
2024-05-09T23:41:30.211Z,7.88
2024-05-09T23:46:37.426Z,7.84
2024-05-09T23:51:44.345Z,7.74
2024-05-09T23:56:51.938Z,7.63
